createdAt,value
2018-02-25T00:00:58.915Z,43.20
2018-02-25T00:03:26.493Z,43.20
2018-02-25T00:05:54.046Z,43.20
2018-02-25T00:08:22.279Z,43.50
2018-02-25T00:10:49.740Z,43.50
2018-02-25T00:13:17.209Z,43.50
2018-02-25T00:15:44.672Z,43.60
2018-02-25T00:18:12.249Z,43.50
2018-02-25T00:20:39.776Z,43.70
2018-02-25T00:23:07.244Z,44.50
2018-02-25T00:25:34.701Z,44.60
2018-02-25T00:28:02.178Z,44.80
2018-02-25T00:30:29.734Z,44.40
2018-02-25T00:32:57.284Z,44.40
2018-02-25T00:35:24.755Z,44.60
2018-02-25T00:37:52.245Z,44.20
2018-02-25T00:40:19.759Z,44.10
2018-02-25T00:42:47.217Z,44.10
2018-02-25T00:45:14.684Z,44.40
2018-02-25T00:47:43.659Z,44.60
2018-02-25T00:50:11.229Z,44.60
2018-02-25T00:52:38.781Z,44.50
2018-02-25T00:55:06.255Z,44.30
2018-02-25T00:57:33.723Z,44.30
2018-02-25T01:00:01.944Z,44.60
2018-02-25T01:02:29.406Z,44.50
2018-02-25T01:04:56.887Z,44.40
2018-02-25T01:07:24.349Z,44.20
2018-02-25T01:09:51.905Z,44.40
2018-02-25T01:12:20.874Z,44.40
2018-02-25T01:14:48.325Z,44.30
2018-02-25T01:17:15.795Z,44.30
2018-02-25T01:19:43.265Z,44.30
2018-02-25T01:22:10.741Z,44.10
2018-02-25T01:24:38.959Z,44.60
2018-02-25T01:27:06.429Z,43.90
2018-02-25T01:29:33.880Z,43.90
2018-02-25T01:32:01.350Z,44.00
2018-02-25T01:34:28.825Z,44.10
2018-02-25T01:36:56.291Z,44.10
2018-02-25T01:39:24.572Z,44.30
2018-02-25T01:41:52.800Z,45.40
2018-02-25T01:44:20.261Z,44.80
2018-02-25T01:46:47.765Z,44.50
2018-02-25T01:49:15.989Z,44.40
2018-02-25T01:51:43.498Z,44.40
2018-02-25T01:54:11.752Z,44.60
2018-02-25T01:56:39.228Z,44.60
2018-02-25T01:59:07.479Z,44.90
2018-02-25T02:01:34.933Z,45.00
2018-02-25T02:04:02.404Z,44.90
2018-02-25T02:06:30.645Z,45.20
2018-02-25T02:08:58.133Z,45.20
2018-02-25T02:11:27.180Z,45.20
2018-02-25T02:13:54.646Z,45.20
2018-02-25T02:16:22.108Z,45.30
2018-02-25T02:18:49.562Z,45.40
2018-02-25T02:21:17.056Z,45.40
2018-02-25T02:23:44.609Z,45.70
2018-02-25T02:26:12.069Z,45.80
2018-02-25T02:28:39.627Z,45.90
2018-02-25T02:31:07.089Z,45.70
2018-02-25T02:33:34.551Z,45.80
2018-02-25T02:36:02.813Z,45.90
2018-02-25T02:38:30.371Z,45.80
2018-02-25T02:40:57.928Z,45.80
2018-02-25T02:43:25.406Z,46.10
2018-02-25T02:45:53.684Z,46.30
2018-02-25T02:48:21.942Z,46.40
2018-02-25T02:50:49.412Z,46.40
2018-02-25T02:53:17.645Z,46.80
2018-02-25T02:55:45.097Z,46.70
2018-02-25T02:58:12.577Z,46.60
2018-02-25T03:00:40.151Z,47.10
2018-02-25T03:03:07.693Z,46.60
2018-02-25T03:05:35.253Z,46.70
2018-02-25T03:08:02.720Z,47.10
2018-02-25T03:10:30.190Z,46.80
2018-02-25T03:12:57.652Z,47.30
2018-02-25T03:15:25.904Z,48.10
2018-02-25T03:17:53.379Z,47.40
2018-02-25T03:20:21.605Z,47.20
2018-02-25T03:22:49.196Z,47.10
2018-02-25T03:25:16.652Z,47.10
2018-02-25T03:27:44.121Z,47.10
2018-02-25T03:30:11.674Z,47.40
2018-02-25T03:32:39.129Z,47.80
2018-02-25T03:35:08.110Z,47.30
2018-02-25T03:37:35.570Z,47.30
2018-02-25T03:40:03.203Z,47.30
2018-02-25T03:42:30.660Z,48.10
2018-02-25T03:44:58.140Z,48.40
2018-02-25T03:47:25.608Z,48.30
2018-02-25T03:49:53.077Z,48.20
2018-02-25T03:52:21.305Z,48.90
2018-02-25T03:54:48.778Z,48.20
2018-02-25T03:57:16.252Z,48.10
2018-02-25T03:59:45.263Z,48.80
2018-02-25T04:02:13.484Z,49.40
2018-02-25T04:04:40.953Z,48.80
2018-02-25T04:07:08.420Z,48.90
2018-02-25T04:09:35.890Z,48.90
2018-02-25T04:12:03.366Z,49.10
2018-02-25T04:14:31.584Z,49.50
2018-02-25T04:16:59.085Z,49.50
2018-02-25T04:19:26.642Z,49.40
2018-02-25T04:21:54.116Z,49.50
2018-02-25T04:24:22.344Z,49.70
2018-02-25T04:26:49.831Z,49.60
2018-02-25T04:29:17.381Z,50.00
2018-02-25T04:31:44.849Z,50.30
2018-02-25T04:34:13.088Z,51.00
2018-02-25T04:36:40.548Z,50.30
2018-02-25T04:39:08.017Z,50.30
2018-02-25T04:41:35.480Z,50.70
2018-02-25T04:44:02.940Z,50.50
2018-02-25T04:46:30.434Z,50.70
2018-02-25T04:48:57.910Z,50.60
2018-02-25T04:51:25.365Z,50.60
2018-02-25T04:53:52.841Z,50.30
2018-02-25T04:56:20.303Z,50.20
2018-02-25T04:58:47.778Z,50.60
2018-02-25T05:01:15.243Z,51.00
2018-02-25T05:03:42.787Z,51.10
2018-02-25T05:06:10.491Z,51.20
2018-02-25T05:08:38.120Z,51.20
2018-02-25T05:11:05.589Z,51.80
2018-02-25T05:13:33.911Z,52.00
2018-02-25T05:16:01.374Z,51.40
2018-02-25T05:18:28.857Z,51.20
2018-02-25T05:20:56.335Z,50.90
2018-02-25T05:23:23.884Z,51.20
2018-02-25T05:25:51.382Z,51.20
2018-02-25T05:28:18.901Z,51.70
2018-02-25T05:30:46.369Z,51.50
2018-02-25T05:33:14.592Z,51.50
2018-02-25T05:35:42.072Z,51.40
2018-02-25T05:38:09.533Z,51.90
2018-02-25T05:40:37.005Z,51.50
2018-02-25T05:43:04.560Z,51.70
2018-02-25T05:45:32.017Z,51.60
2018-02-25T05:47:59.576Z,51.60
2018-02-25T05:50:27.133Z,51.70
2018-02-25T05:52:54.715Z,51.80
2018-02-25T05:55:22.954Z,52.60
2018-02-25T05:57:50.416Z,52.50
2018-02-25T06:00:17.985Z,52.70
2018-02-25T06:02:45.446Z,52.60
2018-02-25T06:05:12.957Z,52.30
2018-02-25T06:07:40.412Z,52.40
2018-02-25T06:10:07.897Z,52.30
2018-02-25T06:12:35.352Z,52.50
2018-02-25T06:15:02.816Z,52.90
2018-02-25T06:17:30.340Z,52.60
2018-02-25T06:19:57.797Z,52.70
2018-02-25T06:22:25.298Z,52.80
2018-02-25T06:24:52.851Z,53.00
2018-02-25T06:27:20.369Z,53.30
2018-02-25T06:29:47.824Z,53.30
2018-02-25T06:32:15.292Z,53.50
2018-02-25T06:34:43.293Z,53.60
2018-02-25T06:37:10.854Z,53.20
2018-02-25T06:39:38.418Z,53.70
2018-02-25T06:42:05.896Z,53.30
2018-02-25T06:44:34.146Z,53.40
2018-02-25T06:47:01.614Z,53.30
2018-02-25T06:49:29.117Z,53.10
2018-02-25T06:51:56.616Z,53.20
2018-02-25T06:54:24.094Z,54.30
2018-02-25T06:56:52.328Z,54.20
2018-02-25T06:59:19.905Z,54.20
2018-02-25T07:01:47.364Z,54.10
2018-02-25T07:04:14.929Z,54.40
2018-02-25T07:06:42.392Z,53.80
2018-02-25T07:09:09.861Z,53.60
2018-02-25T07:11:38.111Z,53.30
2018-02-25T07:14:05.576Z,53.20
2018-02-25T07:16:33.910Z,53.40
2018-02-25T07:19:01.374Z,53.40
2018-02-25T07:21:28.845Z,54.20
2018-02-25T07:23:56.324Z,54.10
2018-02-25T07:26:23.784Z,54.00
2018-02-25T07:28:52.036Z,53.60
2018-02-25T07:31:19.505Z,53.50
2018-02-25T07:33:46.979Z,53.50
2018-02-25T07:36:15.237Z,53.00
2018-02-25T07:38:42.700Z,52.90
2018-02-25T07:41:10.932Z,52.80
2018-02-25T07:43:38.414Z,52.80
2018-02-25T07:46:05.872Z,52.50
2018-02-25T07:48:33.341Z,52.10
2018-02-25T07:51:00.912Z,51.50
2018-02-25T07:53:29.173Z,52.20
2018-02-25T07:55:57.445Z,51.30
2018-02-25T07:58:24.876Z,51.20
2018-02-25T08:00:52.353Z,50.30
2018-02-25T08:03:19.816Z,49.70
2018-02-25T08:05:47.336Z,49.10
2018-02-25T08:08:14.805Z,47.30
2018-02-25T08:10:42.268Z,46.40
2018-02-25T08:13:09.729Z,46.90
2018-02-25T08:15:37.201Z,46.50
2018-02-25T08:18:04.668Z,45.20
2018-02-25T08:20:32.143Z,43.40
2018-02-25T08:23:00.389Z,43.40
2018-02-25T08:25:29.444Z,43.30
2018-02-25T08:27:56.971Z,43.30
2018-02-25T08:30:25.233Z,41.00
2018-02-25T08:32:53.465Z,40.40
2018-02-25T08:35:20.933Z,40.40
2018-02-25T08:37:48.409Z,40.90
2018-02-25T08:40:17.373Z,43.00
2018-02-25T08:42:44.853Z,42.90
2018-02-25T08:45:12.329Z,42.20
2018-02-25T08:47:40.589Z,40.70
2018-02-25T08:50:08.854Z,40.50
2018-02-25T08:52:36.270Z,39.90
2018-02-25T08:55:03.773Z,38.20
2018-02-25T08:57:31.245Z,39.10
2018-02-25T08:59:58.701Z,38.80
2018-02-25T09:02:26.180Z,39.70
2018-02-25T09:04:54.393Z,38.20
2018-02-25T09:07:21.881Z,38.10
2018-02-25T09:09:49.336Z,37.20
2018-02-25T09:12:16.790Z,37.50
2018-02-25T09:14:44.247Z,37.00
2018-02-25T09:17:11.705Z,35.90
2018-02-25T09:19:39.164Z,37.00
2018-02-25T09:22:06.619Z,36.80
2018-02-25T09:24:35.641Z,38.20
2018-02-25T09:27:03.159Z,38.10
2018-02-25T09:29:30.629Z,38.30
2018-02-25T09:31:58.186Z,37.90
2018-02-25T09:34:25.753Z,37.80
2018-02-25T09:36:53.305Z,37.70
2018-02-25T09:39:20.800Z,38.50
2018-02-25T09:41:48.278Z,38.10
2018-02-25T09:44:15.735Z,37.60
2018-02-25T09:46:43.237Z,35.30
2018-02-25T09:49:10.705Z,35.40
2018-02-25T09:51:38.934Z,36.60
2018-02-25T09:54:06.401Z,36.50
2018-02-25T09:56:33.875Z,36.20
2018-02-25T09:59:01.345Z,36.80
2018-02-25T10:01:28.808Z,36.20
2018-02-25T10:03:57.063Z,35.60
2018-02-25T10:06:24.521Z,35.60
2018-02-25T10:08:51.976Z,34.30
2018-02-25T10:11:19.482Z,34.00
2018-02-25T10:13:46.940Z,32.90
2018-02-25T10:16:14.424Z,33.70
2018-02-25T10:18:41.909Z,33.00
2018-02-25T10:21:09.394Z,33.40
2018-02-25T10:23:37.621Z,33.80
2018-02-25T10:26:05.152Z,33.70
2018-02-25T10:28:32.662Z,32.70
2018-02-25T10:31:00.124Z,34.20
2018-02-25T10:33:28.397Z,31.50
2018-02-25T10:35:55.956Z,31.50
2018-02-25T10:38:23.497Z,33.00
2018-02-25T10:40:51.052Z,31.90
2018-02-25T10:43:18.637Z,29.40
2018-02-25T10:45:46.857Z,28.10
2018-02-25T10:48:14.309Z,28.40
2018-02-25T10:50:41.768Z,27.30
2018-02-25T10:53:09.360Z,28.60
2018-02-25T10:55:36.936Z,29.10
2018-02-25T10:58:04.426Z,29.40
2018-02-25T11:00:36.719Z,28.70
2018-02-25T11:03:04.182Z,28.40
2018-02-25T11:05:31.674Z,27.40
2018-02-25T11:07:59.132Z,28.90
2018-02-25T11:10:28.282Z,25.80
2018-02-25T11:12:55.752Z,25.80
2018-02-25T11:15:23.229Z,25.30
2018-02-25T11:17:50.693Z,24.20
2018-02-25T11:20:18.254Z,25.00
2018-02-25T11:22:45.712Z,25.30
2018-02-25T11:25:13.260Z,24.00
2018-02-25T11:27:41.544Z,23.90
2018-02-25T11:30:09.036Z,24.00
2018-02-25T11:32:36.557Z,23.80
2018-02-25T11:35:04.013Z,22.70
2018-02-25T11:37:31.510Z,23.10
2018-02-25T11:39:58.977Z,23.60
2018-02-25T11:42:26.505Z,24.40
2018-02-25T11:44:53.935Z,22.20
2018-02-25T11:47:21.405Z,23.50
2018-02-25T11:49:48.862Z,21.90
2018-02-25T11:52:16.414Z,23.30
2018-02-25T11:54:43.969Z,23.60
2018-02-25T11:57:11.497Z,24.00
2018-02-25T11:59:38.977Z,21.40
2018-02-25T12:02:06.447Z,22.40
2018-02-25T12:04:35.413Z,21.00
2018-02-25T12:07:02.880Z,21.00
2018-02-25T12:09:30.340Z,22.70
2018-02-25T12:11:57.907Z,20.60
2018-02-25T12:14:25.550Z,20.00
2018-02-25T12:16:53.024Z,19.20
2018-02-25T12:19:20.585Z,19.70
2018-02-25T12:21:48.135Z,19.60
2018-02-25T12:24:15.697Z,18.60
2018-02-25T12:26:43.164Z,19.00
2018-02-25T12:29:10.722Z,20.30
2018-02-25T12:31:38.188Z,21.30
2018-02-25T12:34:05.645Z,22.90
2018-02-25T12:36:33.897Z,23.50
2018-02-25T12:39:01.460Z,23.50
2018-02-25T12:41:28.929Z,24.00
2018-02-25T12:43:56.479Z,23.80
2018-02-25T12:46:24.036Z,24.70
2018-02-25T12:48:51.502Z,25.10
2018-02-25T12:51:20.464Z,25.30
2018-02-25T12:53:47.933Z,25.30
2018-02-25T12:56:15.397Z,25.20
2018-02-25T12:58:42.848Z,25.20
2018-02-25T13:01:10.311Z,25.50
2018-02-25T13:03:39.272Z,26.80
2018-02-25T13:06:06.733Z,26.80
2018-02-25T13:08:34.277Z,27.20
2018-02-25T13:11:01.858Z,27.70
2018-02-25T13:13:29.317Z,27.80
2018-02-25T13:15:56.786Z,27.60
2018-02-25T13:18:25.762Z,27.60
2018-02-25T13:20:53.223Z,27.50
2018-02-25T13:23:20.684Z,28.50
2018-02-25T13:25:48.256Z,28.40
2018-02-25T13:28:17.225Z,28.70
2018-02-25T13:30:44.699Z,28.70
2018-02-25T13:33:12.157Z,29.10
2018-02-25T13:35:39.787Z,29.10
2018-02-25T13:38:07.249Z,29.60
2018-02-25T13:40:34.701Z,29.60
2018-02-25T13:43:02.168Z,29.30
2018-02-25T13:45:29.643Z,30.10
2018-02-25T13:47:57.104Z,29.60
2018-02-25T13:50:24.661Z,29.80
2018-02-25T13:52:52.124Z,30.00
2018-02-25T13:55:19.584Z,29.90
2018-02-25T13:57:47.061Z,29.70
2018-02-25T14:00:15.367Z,29.60
2018-02-25T14:02:42.865Z,29.60
2018-02-25T14:05:10.318Z,29.40
2018-02-25T14:07:37.778Z,29.30
2018-02-25T14:10:05.250Z,29.20
2018-02-25T14:12:34.236Z,29.00
2018-02-25T14:15:01.692Z,28.90
2018-02-25T14:17:29.345Z,29.00
2018-02-25T14:19:58.319Z,29.00
2018-02-25T14:22:25.856Z,29.00
2018-02-25T14:24:53.314Z,29.50
2018-02-25T14:27:20.788Z,29.70
2018-02-25T14:29:48.248Z,29.60
2018-02-25T14:32:15.724Z,29.20
2018-02-25T14:34:43.590Z,29.30
2018-02-25T14:37:11.811Z,29.90
2018-02-25T14:39:39.281Z,29.90
2018-02-25T14:42:06.772Z,30.00
2018-02-25T14:44:34.236Z,30.00
2018-02-25T14:47:01.802Z,30.10
2018-02-25T14:49:29.272Z,30.60
2018-02-25T14:51:57.524Z,30.60
2018-02-25T14:54:25.026Z,30.60
2018-02-25T14:56:52.481Z,30.20
2018-02-25T14:59:19.943Z,30.10
2018-02-25T15:01:47.424Z,30.30
2018-02-25T15:04:14.881Z,30.50
2018-02-25T15:06:42.360Z,29.80
2018-02-25T15:09:09.817Z,30.10
2018-02-25T15:14:11.289Z,29.10
2018-02-25T15:16:40.271Z,29.90
2018-02-25T15:19:07.720Z,29.90
2018-02-25T15:24:13.709Z,30.60
2018-02-25T15:26:41.173Z,31.20
2018-02-25T15:29:08.636Z,31.30
2018-02-25T15:31:37.604Z,32.10
2018-02-25T15:34:05.070Z,32.00
2018-02-25T15:36:32.535Z,32.30
2018-02-25T15:39:00.152Z,32.80
2018-02-25T15:41:28.364Z,33.40
2018-02-25T15:43:56.199Z,33.30
2018-02-25T15:46:23.802Z,33.60
2018-02-25T15:48:51.253Z,33.90
2018-02-25T15:51:18.805Z,34.00
2018-02-25T15:53:46.361Z,33.90
2018-02-25T15:56:13.813Z,34.00
2018-02-25T15:58:41.273Z,34.10
2018-02-25T16:01:08.742Z,34.10
2018-02-25T16:03:36.284Z,34.40
2018-02-25T16:06:03.740Z,34.60
2018-02-25T16:08:31.200Z,34.90
2018-02-25T16:10:58.713Z,35.10
2018-02-25T16:13:26.175Z,35.30
2018-02-25T16:15:53.673Z,35.50
2018-02-25T16:18:21.133Z,35.50
2018-02-25T16:20:48.641Z,35.40
2018-02-25T16:23:16.117Z,35.60
2018-02-25T16:25:43.604Z,35.70
2018-02-25T16:28:11.060Z,35.70
2018-02-25T16:30:38.518Z,35.80
2018-02-25T16:33:05.984Z,35.80
2018-02-25T16:35:33.538Z,35.60
2018-02-25T16:38:01.006Z,35.60
2018-02-25T16:40:29.251Z,36.00
2018-02-25T16:42:56.713Z,35.90
2018-02-25T16:45:24.175Z,36.00
2018-02-25T16:47:51.640Z,36.20
2018-02-25T16:50:19.879Z,37.00
2018-02-25T16:52:47.354Z,36.90
2018-02-25T16:55:14.825Z,37.00
2018-02-25T16:57:43.059Z,36.80
2018-02-25T17:00:10.547Z,36.80
2018-02-25T17:02:38.004Z,36.80
2018-02-25T17:05:05.493Z,37.10
2018-02-25T17:07:33.749Z,37.30
2018-02-25T17:10:01.210Z,37.20
2018-02-25T17:12:30.409Z,37.50
2018-02-25T17:14:57.889Z,37.50
2018-02-25T17:17:25.346Z,37.30
2018-02-25T17:19:52.801Z,37.60
2018-02-25T17:22:21.035Z,37.80
2018-02-25T17:24:48.495Z,37.80
2018-02-25T17:27:16.840Z,37.60
2018-02-25T17:29:44.297Z,37.60
2018-02-25T17:32:11.788Z,37.60
2018-02-25T17:34:39.246Z,37.90
2018-02-25T17:37:06.804Z,38.00
2018-02-25T17:39:34.321Z,38.40
2018-02-25T17:42:01.810Z,38.30
2018-02-25T17:44:29.336Z,38.60
2018-02-25T17:46:56.790Z,38.60
2018-02-25T17:49:24.249Z,38.60
2018-02-25T17:51:51.702Z,38.60
2018-02-25T17:54:19.177Z,38.90
2018-02-25T17:56:46.648Z,38.80
2018-02-25T17:59:14.177Z,39.10
2018-02-25T18:01:41.633Z,39.50
2018-02-25T18:04:09.093Z,39.40
2018-02-25T18:06:36.653Z,39.30
2018-02-25T18:09:04.105Z,39.30
2018-02-25T18:11:31.554Z,39.20
2018-02-25T18:13:59.065Z,39.70
2018-02-25T18:16:28.113Z,39.80
2018-02-25T18:18:55.672Z,39.70
2018-02-25T18:21:23.231Z,40.00
2018-02-25T18:23:50.709Z,39.50
2018-02-25T18:26:18.198Z,39.60
2018-02-25T18:28:46.421Z,40.20
2018-02-25T18:31:13.920Z,40.20
2018-02-25T18:33:41.484Z,40.00
2018-02-25T18:36:08.968Z,41.00
2018-02-25T18:38:37.208Z,41.00
2018-02-25T18:41:04.784Z,40.90
2018-02-25T18:43:32.248Z,40.80
2018-02-25T18:46:00.483Z,40.60
2018-02-25T18:48:27.956Z,40.50
2018-02-25T18:50:55.420Z,40.60
2018-02-25T18:53:22.897Z,40.70
2018-02-25T18:55:51.147Z,41.40
2018-02-25T18:58:18.627Z,41.40
2018-02-25T19:00:46.849Z,42.20
2018-02-25T19:03:14.316Z,42.10
2018-02-25T19:05:41.801Z,42.00
2018-02-25T19:08:09.270Z,42.10
2018-02-25T19:10:37.537Z,42.00
2018-02-25T19:13:05.098Z,42.10
2018-02-25T19:15:32.558Z,42.20
2018-02-25T19:18:00.797Z,42.70
2018-02-25T19:20:28.289Z,42.60
2018-02-25T19:22:55.840Z,42.70
2018-02-25T19:25:23.348Z,42.50
2018-02-25T19:27:50.812Z,43.30
2018-02-25T19:30:18.276Z,43.40
2018-02-25T19:32:45.773Z,43.80
2018-02-25T19:35:13.257Z,44.10
2018-02-25T19:37:46.371Z,44.00
2018-02-25T19:40:13.825Z,43.90
2018-02-25T19:42:41.296Z,44.00
2018-02-25T19:45:08.772Z,43.60
2018-02-25T19:47:36.236Z,43.90
2018-02-25T19:50:03.704Z,43.30
2018-02-25T19:52:31.968Z,44.50
2018-02-25T19:54:59.438Z,44.50
2018-02-25T19:57:27.665Z,46.40
2018-02-25T19:59:55.169Z,46.30
2018-02-25T20:02:23.488Z,47.30
2018-02-25T20:04:51.284Z,47.20
2018-02-25T20:07:18.758Z,48.70
2018-02-25T20:09:46.224Z,48.70
2018-02-25T20:12:14.464Z,49.60
2018-02-25T20:14:41.938Z,49.70
2018-02-25T20:17:09.434Z,50.60
2018-02-25T20:19:37.658Z,54.50
2018-02-25T20:22:05.136Z,54.40
2018-02-25T20:24:32.596Z,56.30
2018-02-25T20:27:00.056Z,56.90
2018-02-25T20:29:27.517Z,56.80
2018-02-25T20:31:55.760Z,59.00
2018-02-25T20:34:23.230Z,59.00
2018-02-25T20:36:50.693Z,58.80
2018-02-25T20:39:18.164Z,62.90
2018-02-25T20:41:46.433Z,66.30
2018-02-25T20:44:14.704Z,67.00
2018-02-25T20:46:42.181Z,67.00
2018-02-25T20:49:10.422Z,66.70
2018-02-25T20:51:37.912Z,66.70
2018-02-25T20:54:06.159Z,66.00
2018-02-25T20:56:33.623Z,65.90
2018-02-25T20:59:01.182Z,65.80
2018-02-25T21:01:29.465Z,63.30
2018-02-25T21:03:57.736Z,63.20
2018-02-25T21:06:25.290Z,62.20
2018-02-25T21:08:52.756Z,62.40
2018-02-25T21:11:21.023Z,63.40
2018-02-25T21:13:49.271Z,62.40
2018-02-25T21:16:16.749Z,62.40
2018-02-25T21:18:44.990Z,63.30
2018-02-25T21:21:12.542Z,63.20
2018-02-25T21:23:40.013Z,63.70
2018-02-25T21:26:07.469Z,63.70
2018-02-25T21:28:34.933Z,64.80
2018-02-25T21:31:02.393Z,66.30
2018-02-25T21:33:29.933Z,66.00
2018-02-25T21:35:57.400Z,65.70
2018-02-25T21:38:24.864Z,65.70
2018-02-25T21:40:52.332Z,65.60
2018-02-25T21:43:19.796Z,65.40
2018-02-25T21:45:48.789Z,65.70
2018-02-25T21:48:17.042Z,63.60
2018-02-25T21:50:44.513Z,63.60
2018-02-25T21:53:14.922Z,64.10
2018-02-25T21:55:48.066Z,63.20
2018-02-25T21:58:21.927Z,63.60
2018-02-25T22:00:55.133Z,63.60
2018-02-25T22:03:33.257Z,63.50
2018-02-25T22:06:01.507Z,63.40
2018-02-25T22:08:28.977Z,63.30
2018-02-25T22:10:56.445Z,62.80
2018-02-25T22:13:23.916Z,61.60
2018-02-25T22:15:52.145Z,62.20
2018-02-25T22:18:19.636Z,62.20
2018-02-25T22:20:47.859Z,60.60
2018-02-25T22:23:15.351Z,60.00
2018-02-25T22:25:42.817Z,61.10
2018-02-25T22:28:10.369Z,61.90
2018-02-25T22:30:37.920Z,62.00
2018-02-25T22:33:06.210Z,61.40
2018-02-25T22:35:33.688Z,61.40
2018-02-25T22:38:02.032Z,61.20
2018-02-25T22:40:29.492Z,61.20
2018-02-25T22:42:56.957Z,61.90
2018-02-25T22:45:24.500Z,61.40
2018-02-25T22:47:51.967Z,61.70
2018-02-25T22:50:20.210Z,62.60
2018-02-25T22:52:47.673Z,62.60
2018-02-25T22:55:15.148Z,63.80
2018-02-25T22:57:42.610Z,62.60
2018-02-25T23:00:10.168Z,63.50
2018-02-25T23:02:37.726Z,62.50
2018-02-25T23:05:06.709Z,64.10
2018-02-25T23:07:34.277Z,64.00
2018-02-25T23:10:01.784Z,64.30
2018-02-25T23:12:29.261Z,63.70
2018-02-25T23:14:56.729Z,64.50
2018-02-25T23:17:24.261Z,65.50
2018-02-25T23:19:51.769Z,65.60
2018-02-25T23:22:19.328Z,66.10
2018-02-25T23:24:46.790Z,66.40
2018-02-25T23:27:14.336Z,66.70
2018-02-25T23:29:41.801Z,67.00
2018-02-25T23:32:09.357Z,68.10
2018-02-25T23:34:37.592Z,66.20
2018-02-25T23:37:05.070Z,66.20
2018-02-25T23:39:32.553Z,67.40
2018-02-25T23:42:00.157Z,67.10
2018-02-25T23:44:27.661Z,66.70
2018-02-25T23:46:55.220Z,67.30
2018-02-25T23:49:22.777Z,67.70
2018-02-25T23:51:51.061Z,66.50
2018-02-25T23:54:19.296Z,66.70
2018-02-25T23:56:46.790Z,66.80
2018-02-25T23:59:14.353Z,65.90
